sensor_id;sensor_type;location;lat;lon;timestamp;P1;durP1;ratioP1;P2;durP2;ratioP2
3085;SDS011;52812;48.960;9.108;2024-02-28T00:02:23;24.10;;;13.60;;
3085;SDS011;52812;48.960;9.108;2024-02-28T00:04:48;25.70;;;13.70;;
3085;SDS011;52812;48.960;9.108;2024-02-28T00:07:14;23.93;;;14.30;;
3085;SDS011;52812;48.960;9.108;2024-02-28T00:09:40;24.50;;;13.80;;
3085;SDS011;52812;48.960;9.108;2024-02-28T00:12:05;21.87;;;12.90;;
3085;SDS011;52812;48.960;9.108;2024-02-28T00:14:31;26.13;;;13.27;;
3085;SDS011;52812;48.960;9.108;2024-02-28T00:16:56;27.87;;;13.47;;
3085;SDS011;52812;48.960;9.108;2024-02-28T00:19:22;23.03;;;13.17;;
3085;SDS011;52812;48.960;9.108;2024-02-28T00:21:50;22.40;;;12.70;;
3085;SDS011;52812;48.960;9.108;2024-02-28T00:24:15;25.50;;;13.83;;
3085;SDS011;52812;48.960;9.108;2024-02-28T00:26:41;24.10;;;13.30;;
3085;SDS011;52812;48.960;9.108;2024-02-28T00:29:08;23.23;;;13.60;;
3085;SDS011;52812;48.960;9.108;2024-02-28T00:31:34;23.97;;;14.23;;
3085;SDS011;52812;48.960;9.108;2024-02-28T00:34:00;21.27;;;13.00;;
3085;SDS011;52812;48.960;9.108;2024-02-28T00:36:25;23.63;;;13.20;;
3085;SDS011;52812;48.960;9.108;2024-02-28T00:38:51;20.53;;;12.80;;
3085;SDS011;52812;48.960;9.108;2024-02-28T00:41:16;24.40;;;14.10;;
3085;SDS011;52812;48.960;9.108;2024-02-28T00:43:42;25.00;;;13.17;;
3085;SDS011;52812;48.960;9.108;2024-02-28T00:46:07;22.57;;;13.47;;
3085;SDS011;52812;48.960;9.108;2024-02-28T00:48:39;25.50;;;14.17;;
3085;SDS011;52812;48.960;9.108;2024-02-28T00:51:04;22.60;;;13.33;;
3085;SDS011;52812;48.960;9.108;2024-02-28T00:53:30;25.10;;;13.03;;
3085;SDS011;52812;48.960;9.108;2024-02-28T00:55:56;21.60;;;12.80;;
3085;SDS011;52812;48.960;9.108;2024-02-28T00:58:21;23.30;;;13.30;;
3085;SDS011;52812;48.960;9.108;2024-02-28T01:00:47;21.80;;;13.27;;
3085;SDS011;52812;48.960;9.108;2024-02-28T01:03:13;21.50;;;13.27;;
3085;SDS011;52812;48.960;9.108;2024-02-28T01:05:40;23.27;;;13.47;;
3085;SDS011;52812;48.960;9.108;2024-02-28T01:08:06;25.43;;;14.47;;
3085;SDS011;52812;48.960;9.108;2024-02-28T01:10:32;21.90;;;11.73;;
3085;SDS011;52812;48.960;9.108;2024-02-28T01:12:58;27.90;;;13.70;;
3085;SDS011;52812;48.960;9.108;2024-02-28T01:15:24;23.07;;;12.30;;
3085;SDS011;52812;48.960;9.108;2024-02-28T01:17:49;21.07;;;12.77;;
3085;SDS011;52812;48.960;9.108;2024-02-28T01:20:15;24.63;;;13.33;;
3085;SDS011;52812;48.960;9.108;2024-02-28T01:22:40;25.77;;;13.30;;
3085;SDS011;52812;48.960;9.108;2024-02-28T01:25:06;24.33;;;12.43;;
3085;SDS011;52812;48.960;9.108;2024-02-28T01:27:32;22.83;;;12.67;;
3085;SDS011;52812;48.960;9.108;2024-02-28T01:29:57;22.70;;;13.00;;
3085;SDS011;52812;48.960;9.108;2024-02-28T01:32:23;24.70;;;13.23;;
3085;SDS011;52812;48.960;9.108;2024-02-28T01:34:48;22.47;;;12.50;;
3085;SDS011;52812;48.960;9.108;2024-02-28T01:37:14;29.03;;;13.00;;
3085;SDS011;52812;48.960;9.108;2024-02-28T01:39:40;23.70;;;13.20;;
3085;SDS011;52812;48.960;9.108;2024-02-28T01:42:05;23.83;;;13.53;;
3085;SDS011;52812;48.960;9.108;2024-02-28T01:44:31;23.50;;;13.73;;
3085;SDS011;52812;48.960;9.108;2024-02-28T01:47:03;20.70;;;12.10;;
3085;SDS011;52812;48.960;9.108;2024-02-28T01:49:28;21.77;;;12.67;;
3085;SDS011;52812;48.960;9.108;2024-02-28T01:51:54;24.60;;;13.30;;
3085;SDS011;52812;48.960;9.108;2024-02-28T01:54:21;25.87;;;13.03;;
3085;SDS011;52812;48.960;9.108;2024-02-28T01:56:47;24.10;;;13.27;;
3085;SDS011;52812;48.960;9.108;2024-02-28T01:59:13;22.20;;;12.40;;
3085;SDS011;52812;48.960;9.108;2024-02-28T02:01:40;26.90;;;13.73;;
3085;SDS011;52812;48.960;9.108;2024-02-28T02:04:07;27.30;;;14.20;;
3085;SDS011;52812;48.960;9.108;2024-02-28T02:06:33;24.80;;;13.97;;
3085;SDS011;52812;48.960;9.108;2024-02-28T02:09:03;22.80;;;13.33;;
3085;SDS011;52812;48.960;9.108;2024-02-28T02:11:29;23.47;;;13.10;;
3085;SDS011;52812;48.960;9.108;2024-02-28T02:13:54;23.10;;;13.80;;
3085;SDS011;52812;48.960;9.108;2024-02-28T02:16:20;23.03;;;12.57;;
3085;SDS011;52812;48.960;9.108;2024-02-28T02:18:51;22.40;;;12.17;;
3085;SDS011;52812;48.960;9.108;2024-02-28T02:21:22;18.57;;;12.17;;
3085;SDS011;52812;48.960;9.108;2024-02-28T02:23:49;19.07;;;12.07;;
3085;SDS011;52812;48.960;9.108;2024-02-28T02:26:15;24.30;;;12.50;;
3085;SDS011;52812;48.960;9.108;2024-02-28T02:28:40;21.57;;;11.83;;
3085;SDS011;52812;48.960;9.108;2024-02-28T02:31:06;24.20;;;13.30;;
3085;SDS011;52812;48.960;9.108;2024-02-28T02:33:32;22.03;;;12.47;;
3085;SDS011;52812;48.960;9.108;2024-02-28T02:35:57;23.40;;;13.07;;
3085;SDS011;52812;48.960;9.108;2024-02-28T02:38:23;22.60;;;12.80;;
3085;SDS011;52812;48.960;9.108;2024-02-28T02:40:52;20.90;;;12.83;;
3085;SDS011;52812;48.960;9.108;2024-02-28T02:43:17;21.43;;;12.67;;
3085;SDS011;52812;48.960;9.108;2024-02-28T02:45:43;23.53;;;13.13;;
3085;SDS011;52812;48.960;9.108;2024-02-28T02:48:09;25.97;;;13.60;;
3085;SDS011;52812;48.960;9.108;2024-02-28T02:50:35;21.60;;;12.77;;
3085;SDS011;52812;48.960;9.108;2024-02-28T02:53:01;26.90;;;13.40;;
3085;SDS011;52812;48.960;9.108;2024-02-28T02:55:27;23.93;;;13.13;;
3085;SDS011;52812;48.960;9.108;2024-02-28T02:57:53;25.13;;;13.40;;
3085;SDS011;52812;48.960;9.108;2024-02-28T03:00:19;22.23;;;13.07;;
3085;SDS011;52812;48.960;9.108;2024-02-28T03:02:45;26.20;;;13.17;;
3085;SDS011;52812;48.960;9.108;2024-02-28T03:05:10;24.20;;;13.03;;
3085;SDS011;52812;48.960;9.108;2024-02-28T03:07:36;21.60;;;13.30;;
3085;SDS011;52812;48.960;9.108;2024-02-28T03:10:01;25.93;;;12.97;;
3085;SDS011;52812;48.960;9.108;2024-02-28T03:12:28;22.07;;;13.37;;
3085;SDS011;52812;48.960;9.108;2024-02-28T03:14:53;26.03;;;13.37;;
3085;SDS011;52812;48.960;9.108;2024-02-28T03:17:19;22.43;;;12.60;;
3085;SDS011;52812;48.960;9.108;2024-02-28T03:19:44;21.50;;;12.70;;
3085;SDS011;52812;48.960;9.108;2024-02-28T03:22:10;19.60;;;12.00;;
3085;SDS011;52812;48.960;9.108;2024-02-28T03:24:35;21.90;;;13.00;;
3085;SDS011;52812;48.960;9.108;2024-02-28T03:27:01;24.63;;;12.37;;
3085;SDS011;52812;48.960;9.108;2024-02-28T03:29:27;24.60;;;13.03;;
3085;SDS011;52812;48.960;9.108;2024-02-28T03:31:53;23.30;;;12.50;;
3085;SDS011;52812;48.960;9.108;2024-02-28T03:34:18;21.37;;;12.93;;
3085;SDS011;52812;48.960;9.108;2024-02-28T03:36:44;22.90;;;13.53;;
3085;SDS011;52812;48.960;9.108;2024-02-28T03:39:10;22.07;;;12.90;;
3085;SDS011;52812;48.960;9.108;2024-02-28T03:41:35;22.60;;;12.57;;
3085;SDS011;52812;48.960;9.108;2024-02-28T03:44:01;21.37;;;12.00;;
3085;SDS011;52812;48.960;9.108;2024-02-28T03:46:26;23.63;;;12.97;;
3085;SDS011;52812;48.960;9.108;2024-02-28T03:48:52;24.20;;;13.13;;
3085;SDS011;52812;48.960;9.108;2024-02-28T03:51:18;22.00;;;12.83;;
3085;SDS011;52812;48.960;9.108;2024-02-28T03:53:43;23.43;;;12.77;;
3085;SDS011;52812;48.960;9.108;2024-02-28T03:56:09;20.90;;;13.20;;
3085;SDS011;52812;48.960;9.108;2024-02-28T03:58:35;23.67;;;13.37;;
3085;SDS011;52812;48.960;9.108;2024-02-28T04:01:00;19.87;;;12.43;;
3085;SDS011;52812;48.960;9.108;2024-02-28T04:03:26;22.33;;;12.10;;
3085;SDS011;52812;48.960;9.108;2024-02-28T04:05:51;21.23;;;12.87;;
3085;SDS011;52812;48.960;9.108;2024-02-28T04:08:17;24.63;;;12.40;;
3085;SDS011;52812;48.960;9.108;2024-02-28T04:10:42;22.30;;;12.97;;
3085;SDS011;52812;48.960;9.108;2024-02-28T04:13:08;20.53;;;12.77;;
3085;SDS011;52812;48.960;9.108;2024-02-28T04:15:34;20.13;;;12.43;;
3085;SDS011;52812;48.960;9.108;2024-02-28T04:17:59;23.57;;;11.90;;
3085;SDS011;52812;48.960;9.108;2024-02-28T04:20:25;19.60;;;11.70;;
3085;SDS011;52812;48.960;9.108;2024-02-28T04:22:51;20.00;;;11.20;;
3085;SDS011;52812;48.960;9.108;2024-02-28T04:25:16;26.97;;;14.40;;
3085;SDS011;52812;48.960;9.108;2024-02-28T04:27:42;26.83;;;15.13;;
3085;SDS011;52812;48.960;9.108;2024-02-28T04:30:08;20.90;;;12.87;;
3085;SDS011;52812;48.960;9.108;2024-02-28T04:32:34;20.93;;;12.20;;
3085;SDS011;52812;48.960;9.108;2024-02-28T04:35:00;22.10;;;13.20;;
3085;SDS011;52812;48.960;9.108;2024-02-28T04:37:27;20.33;;;11.90;;
3085;SDS011;52812;48.960;9.108;2024-02-28T04:39:53;22.43;;;12.40;;
3085;SDS011;52812;48.960;9.108;2024-02-28T04:42:18;21.50;;;12.40;;
3085;SDS011;52812;48.960;9.108;2024-02-28T04:44:44;20.27;;;12.03;;
3085;SDS011;52812;48.960;9.108;2024-02-28T04:47:09;19.97;;;11.87;;
3085;SDS011;52812;48.960;9.108;2024-02-28T04:49:38;20.53;;;11.63;;
3085;SDS011;52812;48.960;9.108;2024-02-28T04:52:04;21.23;;;12.43;;
3085;SDS011;52812;48.960;9.108;2024-02-28T04:54:30;22.40;;;13.03;;
3085;SDS011;52812;48.960;9.108;2024-02-28T04:56:56;22.03;;;12.17;;
3085;SDS011;52812;48.960;9.108;2024-02-28T04:59:22;22.70;;;12.23;;
3085;SDS011;52812;48.960;9.108;2024-02-28T05:01:47;22.30;;;12.77;;
3085;SDS011;52812;48.960;9.108;2024-02-28T05:04:13;27.30;;;12.77;;
3085;SDS011;52812;48.960;9.108;2024-02-28T05:06:39;21.20;;;12.07;;
3085;SDS011;52812;48.960;9.108;2024-02-28T05:09:04;23.07;;;12.90;;
3085;SDS011;52812;48.960;9.108;2024-02-28T05:11:30;23.20;;;13.67;;
3085;SDS011;52812;48.960;9.108;2024-02-28T05:13:57;21.97;;;12.63;;
3085;SDS011;52812;48.960;9.108;2024-02-28T05:16:22;27.87;;;14.00;;
3085;SDS011;52812;48.960;9.108;2024-02-28T05:18:48;22.60;;;13.13;;
3085;SDS011;52812;48.960;9.108;2024-02-28T05:21:14;24.50;;;12.50;;
3085;SDS011;52812;48.960;9.108;2024-02-28T05:23:39;22.03;;;13.13;;
3085;SDS011;52812;48.960;9.108;2024-02-28T05:26:05;22.47;;;13.07;;
3085;SDS011;52812;48.960;9.108;2024-02-28T05:28:35;26.63;;;13.33;;
3085;SDS011;52812;48.960;9.108;2024-02-28T05:33:47;24.90;;;14.03;;
3085;SDS011;52812;48.960;9.108;2024-02-28T05:36:12;25.40;;;13.40;;
3085;SDS011;52812;48.960;9.108;2024-02-28T05:38:38;29.37;;;16.83;;
3085;SDS011;52812;48.960;9.108;2024-02-28T05:41:03;24.57;;;13.60;;
3085;SDS011;52812;48.960;9.108;2024-02-28T05:43:29;24.63;;;14.03;;
3085;SDS011;52812;48.960;9.108;2024-02-28T05:45:54;24.10;;;13.77;;
3085;SDS011;52812;48.960;9.108;2024-02-28T05:48:20;28.33;;;14.67;;
3085;SDS011;52812;48.960;9.108;2024-02-28T05:50:45;26.27;;;14.07;;
3085;SDS011;52812;48.960;9.108;2024-02-28T05:53:11;32.43;;;18.63;;
3085;SDS011;52812;48.960;9.108;2024-02-28T05:55:37;25.47;;;15.27;;
3085;SDS011;52812;48.960;9.108;2024-02-28T05:58:02;25.93;;;14.40;;
3085;SDS011;52812;48.960;9.108;2024-02-28T06:00:28;27.87;;;15.07;;
3085;SDS011;52812;48.960;9.108;2024-02-28T06:02:54;27.00;;;14.87;;
3085;SDS011;52812;48.960;9.108;2024-02-28T06:05:19;27.30;;;14.33;;
3085;SDS011;52812;48.960;9.108;2024-02-28T06:07:45;28.67;;;14.10;;
3085;SDS011;52812;48.960;9.108;2024-02-28T06:10:10;30.03;;;15.33;;
3085;SDS011;52812;48.960;9.108;2024-02-28T06:12:36;24.03;;;13.77;;
3085;SDS011;52812;48.960;9.108;2024-02-28T06:15:02;25.03;;;13.70;;
3085;SDS011;52812;48.960;9.108;2024-02-28T06:17:29;24.67;;;14.20;;
3085;SDS011;52812;48.960;9.108;2024-02-28T06:19:54;29.33;;;14.50;;
3085;SDS011;52812;48.960;9.108;2024-02-28T06:22:20;22.63;;;13.63;;
3085;SDS011;52812;48.960;9.108;2024-02-28T06:24:45;28.70;;;15.60;;
3085;SDS011;52812;48.960;9.108;2024-02-28T06:27:11;30.03;;;14.20;;
3085;SDS011;52812;48.960;9.108;2024-02-28T06:29:38;25.50;;;13.93;;
3085;SDS011;52812;48.960;9.108;2024-02-28T06:32:07;27.83;;;14.80;;
3085;SDS011;52812;48.960;9.108;2024-02-28T06:34:33;29.93;;;16.07;;
3085;SDS011;52812;48.960;9.108;2024-02-28T06:36:58;30.63;;;15.50;;
3085;SDS011;52812;48.960;9.108;2024-02-28T06:39:24;25.00;;;14.57;;
3085;SDS011;52812;48.960;9.108;2024-02-28T06:41:49;25.53;;;14.77;;
3085;SDS011;52812;48.960;9.108;2024-02-28T06:44:17;24.40;;;13.97;;
3085;SDS011;52812;48.960;9.108;2024-02-28T06:46:43;29.00;;;14.67;;
3085;SDS011;52812;48.960;9.108;2024-02-28T06:49:09;27.00;;;15.13;;
3085;SDS011;52812;48.960;9.108;2024-02-28T06:51:34;28.80;;;14.37;;
3085;SDS011;52812;48.960;9.108;2024-02-28T06:54:00;25.40;;;13.80;;
3085;SDS011;52812;48.960;9.108;2024-02-28T06:56:25;24.93;;;14.73;;
3085;SDS011;52812;48.960;9.108;2024-02-28T06:58:51;27.13;;;14.57;;
3085;SDS011;52812;48.960;9.108;2024-02-28T07:01:17;32.83;;;15.90;;
3085;SDS011;52812;48.960;9.108;2024-02-28T07:03:43;25.87;;;14.17;;
3085;SDS011;52812;48.960;9.108;2024-02-28T07:06:09;28.93;;;15.80;;
3085;SDS011;52812;48.960;9.108;2024-02-28T07:08:34;26.37;;;15.17;;
3085;SDS011;52812;48.960;9.108;2024-02-28T07:11:00;29.77;;;14.90;;
3085;SDS011;52812;48.960;9.108;2024-02-28T07:13:26;29.27;;;14.87;;
3085;SDS011;52812;48.960;9.108;2024-02-28T07:15:52;23.83;;;13.67;;
3085;SDS011;52812;48.960;9.108;2024-02-28T07:18:19;27.70;;;14.73;;
3085;SDS011;52812;48.960;9.108;2024-02-28T07:20:44;27.47;;;14.13;;
3085;SDS011;52812;48.960;9.108;2024-02-28T07:23:10;28.47;;;15.13;;
3085;SDS011;52812;48.960;9.108;2024-02-28T07:25:36;25.63;;;14.50;;
3085;SDS011;52812;48.960;9.108;2024-02-28T07:28:02;27.80;;;15.27;;
3085;SDS011;52812;48.960;9.108;2024-02-28T07:30:28;28.17;;;14.70;;
3085;SDS011;52812;48.960;9.108;2024-02-28T07:32:53;28.63;;;15.73;;
3085;SDS011;52812;48.960;9.108;2024-02-28T07:35:19;27.77;;;14.80;;
3085;SDS011;52812;48.960;9.108;2024-02-28T07:37:46;26.10;;;14.77;;
3085;SDS011;52812;48.960;9.108;2024-02-28T07:40:11;30.17;;;15.47;;
3085;SDS011;52812;48.960;9.108;2024-02-28T07:42:37;29.90;;;15.30;;
3085;SDS011;52812;48.960;9.108;2024-02-28T07:45:03;29.30;;;15.47;;
3085;SDS011;52812;48.960;9.108;2024-02-28T07:47:29;23.67;;;14.00;;
3085;SDS011;52812;48.960;9.108;2024-02-28T07:49:56;28.47;;;14.50;;
3085;SDS011;52812;48.960;9.108;2024-02-28T07:52:21;28.77;;;15.53;;
3085;SDS011;52812;48.960;9.108;2024-02-28T07:54:47;27.00;;;14.10;;
3085;SDS011;52812;48.960;9.108;2024-02-28T07:57:12;27.93;;;14.93;;
3085;SDS011;52812;48.960;9.108;2024-02-28T07:59:42;30.07;;;14.70;;
3085;SDS011;52812;48.960;9.108;2024-02-28T08:02:08;26.40;;;14.67;;
3085;SDS011;52812;48.960;9.108;2024-02-28T08:04:38;27.97;;;14.50;;
3085;SDS011;52812;48.960;9.108;2024-02-28T08:07:03;26.63;;;14.67;;
3085;SDS011;52812;48.960;9.108;2024-02-28T08:09:29;27.73;;;13.93;;
3085;SDS011;52812;48.960;9.108;2024-02-28T08:11:55;27.73;;;15.47;;
3085;SDS011;52812;48.960;9.108;2024-02-28T08:14:22;26.90;;;14.30;;
3085;SDS011;52812;48.960;9.108;2024-02-28T08:16:48;28.50;;;16.00;;
3085;SDS011;52812;48.960;9.108;2024-02-28T08:19:14;24.80;;;14.77;;
3085;SDS011;52812;48.960;9.108;2024-02-28T08:21:39;28.67;;;14.57;;
3085;SDS011;52812;48.960;9.108;2024-02-28T08:24:05;26.20;;;14.83;;
3085;SDS011;52812;48.960;9.108;2024-02-28T08:26:31;25.27;;;15.17;;
3085;SDS011;52812;48.960;9.108;2024-02-28T08:28:56;26.97;;;15.37;;
3085;SDS011;52812;48.960;9.108;2024-02-28T08:31:22;29.00;;;15.47;;
3085;SDS011;52812;48.960;9.108;2024-02-28T08:33:47;26.60;;;14.63;;
3085;SDS011;52812;48.960;9.108;2024-02-28T08:36:13;25.60;;;14.80;;
3085;SDS011;52812;48.960;9.108;2024-02-28T08:38:40;25.53;;;14.30;;
3085;SDS011;52812;48.960;9.108;2024-02-28T08:41:05;26.80;;;14.33;;
3085;SDS011;52812;48.960;9.108;2024-02-28T08:43:32;29.43;;;14.47;;
3085;SDS011;52812;48.960;9.108;2024-02-28T08:45:58;25.80;;;14.23;;
3085;SDS011;52812;48.960;9.108;2024-02-28T08:48:24;26.53;;;15.33;;
3085;SDS011;52812;48.960;9.108;2024-02-28T08:50:49;27.63;;;13.93;;
3085;SDS011;52812;48.960;9.108;2024-02-28T08:53:15;27.90;;;14.13;;
3085;SDS011;52812;48.960;9.108;2024-02-28T08:55:40;24.87;;;14.80;;
3085;SDS011;52812;48.960;9.108;2024-02-28T08:58:06;27.50;;;15.43;;
3085;SDS011;52812;48.960;9.108;2024-02-28T09:00:31;25.53;;;14.40;;
3085;SDS011;52812;48.960;9.108;2024-02-28T09:02:57;29.53;;;14.40;;
3085;SDS011;52812;48.960;9.108;2024-02-28T09:05:23;27.30;;;14.77;;
3085;SDS011;52812;48.960;9.108;2024-02-28T09:07:48;30.63;;;15.30;;
3085;SDS011;52812;48.960;9.108;2024-02-28T09:10:16;28.90;;;15.70;;
3085;SDS011;52812;48.960;9.108;2024-02-28T09:12:46;26.40;;;14.93;;
3085;SDS011;52812;48.960;9.108;2024-02-28T09:15:12;28.53;;;15.27;;
3085;SDS011;52812;48.960;9.108;2024-02-28T09:17:38;36.87;;;17.07;;
3085;SDS011;52812;48.960;9.108;2024-02-28T09:20:03;27.17;;;15.00;;
3085;SDS011;52812;48.960;9.108;2024-02-28T09:22:31;27.10;;;14.40;;
3085;SDS011;52812;48.960;9.108;2024-02-28T09:24:57;29.33;;;15.50;;
3085;SDS011;52812;48.960;9.108;2024-02-28T09:27:22;30.87;;;16.20;;
3085;SDS011;52812;48.960;9.108;2024-02-28T09:29:49;31.90;;;16.73;;
3085;SDS011;52812;48.960;9.108;2024-02-28T09:32:15;30.27;;;15.10;;
3085;SDS011;52812;48.960;9.108;2024-02-28T09:34:40;28.17;;;14.93;;
3085;SDS011;52812;48.960;9.108;2024-02-28T09:37:06;29.83;;;15.20;;
3085;SDS011;52812;48.960;9.108;2024-02-28T09:39:32;28.07;;;15.03;;
3085;SDS011;52812;48.960;9.108;2024-02-28T09:41:57;28.50;;;14.97;;
3085;SDS011;52812;48.960;9.108;2024-02-28T09:44:23;28.50;;;15.00;;
3085;SDS011;52812;48.960;9.108;2024-02-28T09:46:52;31.20;;;14.83;;
3085;SDS011;52812;48.960;9.108;2024-02-28T09:49:18;28.40;;;14.67;;
3085;SDS011;52812;48.960;9.108;2024-02-28T09:51:43;27.20;;;14.97;;
3085;SDS011;52812;48.960;9.108;2024-02-28T09:54:14;25.47;;;14.10;;
3085;SDS011;52812;48.960;9.108;2024-02-28T09:56:40;24.90;;;14.33;;
3085;SDS011;52812;48.960;9.108;2024-02-28T09:59:05;26.13;;;14.73;;
3085;SDS011;52812;48.960;9.108;2024-02-28T10:01:31;27.63;;;14.50;;
3085;SDS011;52812;48.960;9.108;2024-02-28T10:04:02;29.33;;;15.10;;
3085;SDS011;52812;48.960;9.108;2024-02-28T10:06:28;27.10;;;14.30;;
3085;SDS011;52812;48.960;9.108;2024-02-28T10:08:53;30.83;;;15.67;;
3085;SDS011;52812;48.960;9.108;2024-02-28T10:11:19;24.90;;;13.40;;
3085;SDS011;52812;48.960;9.108;2024-02-28T10:13:49;25.70;;;13.63;;
3085;SDS011;52812;48.960;9.108;2024-02-28T10:16:17;26.30;;;14.03;;
3085;SDS011;52812;48.960;9.108;2024-02-28T10:18:43;25.53;;;13.70;;
3085;SDS011;52812;48.960;9.108;2024-02-28T10:21:09;26.17;;;14.30;;
3085;SDS011;52812;48.960;9.108;2024-02-28T10:23:37;27.30;;;14.73;;
3085;SDS011;52812;48.960;9.108;2024-02-28T10:26:03;24.00;;;12.80;;
3085;SDS011;52812;48.960;9.108;2024-02-28T10:28:28;24.97;;;13.60;;
3085;SDS011;52812;48.960;9.108;2024-02-28T10:30:54;28.57;;;14.27;;
3085;SDS011;52812;48.960;9.108;2024-02-28T10:33:20;24.90;;;13.53;;
3085;SDS011;52812;48.960;9.108;2024-02-28T10:35:45;25.50;;;14.10;;
3085;SDS011;52812;48.960;9.108;2024-02-28T10:38:16;23.90;;;13.10;;
3085;SDS011;52812;48.960;9.108;2024-02-28T10:40:42;25.37;;;13.87;;
3085;SDS011;52812;48.960;9.108;2024-02-28T10:43:08;25.07;;;13.03;;
3085;SDS011;52812;48.960;9.108;2024-02-28T10:45:38;27.07;;;13.77;;
3085;SDS011;52812;48.960;9.108;2024-02-28T10:48:04;22.20;;;12.47;;
3085;SDS011;52812;48.960;9.108;2024-02-28T10:50:31;21.10;;;12.00;;
3085;SDS011;52812;48.960;9.108;2024-02-28T10:53:03;24.97;;;12.90;;
3085;SDS011;52812;48.960;9.108;2024-02-28T10:55:34;36.10;;;17.30;;
3085;SDS011;52812;48.960;9.108;2024-02-28T10:58:06;38.37;;;17.63;;
3085;SDS011;52812;48.960;9.108;2024-02-28T11:00:34;23.30;;;13.37;;
3085;SDS011;52812;48.960;9.108;2024-02-28T11:03:01;23.80;;;12.57;;
3085;SDS011;52812;48.960;9.108;2024-02-28T11:05:37;22.40;;;12.67;;
3085;SDS011;52812;48.960;9.108;2024-02-28T11:08:11;25.30;;;12.90;;
3085;SDS011;52812;48.960;9.108;2024-02-28T11:10:44;24.57;;;12.57;;
3085;SDS011;52812;48.960;9.108;2024-02-28T11:13:21;26.63;;;13.80;;
3085;SDS011;52812;48.960;9.108;2024-02-28T11:15:51;29.00;;;14.77;;
3085;SDS011;52812;48.960;9.108;2024-02-28T11:18:17;23.87;;;12.03;;
3085;SDS011;52812;48.960;9.108;2024-02-28T11:20:43;23.37;;;13.13;;
3085;SDS011;52812;48.960;9.108;2024-02-28T11:23:11;28.13;;;15.97;;
3085;SDS011;52812;48.960;9.108;2024-02-28T11:25:37;29.40;;;16.40;;
3085;SDS011;52812;48.960;9.108;2024-02-28T11:28:03;25.33;;;13.67;;
3085;SDS011;52812;48.960;9.108;2024-02-28T11:30:29;24.47;;;13.70;;
3085;SDS011;52812;48.960;9.108;2024-02-28T11:32:54;25.40;;;12.80;;
3085;SDS011;52812;48.960;9.108;2024-02-28T11:35:23;27.40;;;12.80;;
3085;SDS011;52812;48.960;9.108;2024-02-28T11:37:49;27.03;;;13.30;;
3085;SDS011;52812;48.960;9.108;2024-02-28T11:40:15;21.93;;;12.30;;
3085;SDS011;52812;48.960;9.108;2024-02-28T11:42:40;26.53;;;13.60;;
3085;SDS011;52812;48.960;9.108;2024-02-28T11:45:09;24.03;;;12.60;;
3085;SDS011;52812;48.960;9.108;2024-02-28T11:47:35;25.37;;;13.03;;
3085;SDS011;52812;48.960;9.108;2024-02-28T11:50:01;23.50;;;12.83;;
3085;SDS011;52812;48.960;9.108;2024-02-28T11:52:30;23.37;;;13.10;;
3085;SDS011;52812;48.960;9.108;2024-02-28T11:54:55;23.90;;;12.73;;
3085;SDS011;52812;48.960;9.108;2024-02-28T11:57:21;22.87;;;12.20;;
3085;SDS011;52812;48.960;9.108;2024-02-28T11:59:47;23.53;;;13.23;;
3085;SDS011;52812;48.960;9.108;2024-02-28T12:02:14;20.93;;;12.77;;
3085;SDS011;52812;48.960;9.108;2024-02-28T12:04:41;21.90;;;11.83;;
3085;SDS011;52812;48.960;9.108;2024-02-28T12:07:08;25.63;;;13.30;;
3085;SDS011;52812;48.960;9.108;2024-02-28T12:09:34;26.93;;;13.87;;
3085;SDS011;52812;48.960;9.108;2024-02-28T12:12:00;23.30;;;12.57;;
3085;SDS011;52812;48.960;9.108;2024-02-28T12:14:26;25.10;;;13.50;;
3085;SDS011;52812;48.960;9.108;2024-02-28T12:16:52;25.50;;;13.70;;
3085;SDS011;52812;48.960;9.108;2024-02-28T12:19:18;25.40;;;13.57;;
3085;SDS011;52812;48.960;9.108;2024-02-28T12:21:45;26.87;;;13.40;;
3085;SDS011;52812;48.960;9.108;2024-02-28T12:24:11;25.27;;;12.50;;
3085;SDS011;52812;48.960;9.108;2024-02-28T12:26:38;23.97;;;12.73;;
3085;SDS011;52812;48.960;9.108;2024-02-28T12:29:04;21.30;;;12.80;;
3085;SDS011;52812;48.960;9.108;2024-02-28T12:31:30;24.27;;;12.83;;
3085;SDS011;52812;48.960;9.108;2024-02-28T12:33:55;23.60;;;12.93;;
3085;SDS011;52812;48.960;9.108;2024-02-28T12:36:21;22.70;;;12.73;;
3085;SDS011;52812;48.960;9.108;2024-02-28T12:38:47;20.63;;;11.83;;
3085;SDS011;52812;48.960;9.108;2024-02-28T12:41:13;24.50;;;11.93;;
3085;SDS011;52812;48.960;9.108;2024-02-28T12:43:40;24.93;;;13.23;;
3085;SDS011;52812;48.960;9.108;2024-02-28T12:46:06;24.20;;;12.30;;
3085;SDS011;52812;48.960;9.108;2024-02-28T12:48:38;22.97;;;12.90;;
3085;SDS011;52812;48.960;9.108;2024-02-28T12:51:04;19.83;;;11.87;;
3085;SDS011;52812;48.960;9.108;2024-02-28T12:53:30;22.50;;;12.53;;
3085;SDS011;52812;48.960;9.108;2024-02-28T12:55:57;22.90;;;12.30;;
3085;SDS011;52812;48.960;9.108;2024-02-28T12:58:22;20.87;;;11.20;;
3085;SDS011;52812;48.960;9.108;2024-02-28T13:00:51;20.33;;;11.20;;
3085;SDS011;52812;48.960;9.108;2024-02-28T13:03:17;23.17;;;11.80;;
3085;SDS011;52812;48.960;9.108;2024-02-28T13:05:43;24.00;;;12.07;;
3085;SDS011;52812;48.960;9.108;2024-02-28T13:08:08;22.50;;;11.40;;
3085;SDS011;52812;48.960;9.108;2024-02-28T13:10:34;20.13;;;11.80;;
3085;SDS011;52812;48.960;9.108;2024-02-28T13:13:04;21.80;;;11.57;;
3085;SDS011;52812;48.960;9.108;2024-02-28T13:15:31;24.37;;;11.73;;
3085;SDS011;52812;48.960;9.108;2024-02-28T13:17:56;21.17;;;12.03;;
3085;SDS011;52812;48.960;9.108;2024-02-28T13:20:22;19.90;;;11.37;;
3085;SDS011;52812;48.960;9.108;2024-02-28T13:22:48;21.77;;;12.23;;
3085;SDS011;52812;48.960;9.108;2024-02-28T13:25:13;21.10;;;12.50;;
3085;SDS011;52812;48.960;9.108;2024-02-28T13:27:40;22.30;;;12.73;;
3085;SDS011;52812;48.960;9.108;2024-02-28T13:30:06;20.93;;;10.60;;
3085;SDS011;52812;48.960;9.108;2024-02-28T13:32:32;16.70;;;9.93;;
3085;SDS011;52812;48.960;9.108;2024-02-28T13:34:58;17.97;;;10.30;;
3085;SDS011;52812;48.960;9.108;2024-02-28T13:37:23;17.50;;;10.30;;
3085;SDS011;52812;48.960;9.108;2024-02-28T13:39:49;17.70;;;10.27;;
3085;SDS011;52812;48.960;9.108;2024-02-28T13:42:17;18.30;;;10.53;;
3085;SDS011;52812;48.960;9.108;2024-02-28T13:44:45;16.87;;;10.00;;
3085;SDS011;52812;48.960;9.108;2024-02-28T13:47:11;16.87;;;9.77;;
3085;SDS011;52812;48.960;9.108;2024-02-28T13:49:38;18.80;;;11.20;;
3085;SDS011;52812;48.960;9.108;2024-02-28T13:52:04;16.57;;;9.80;;
3085;SDS011;52812;48.960;9.108;2024-02-28T13:54:30;15.97;;;9.10;;
3085;SDS011;52812;48.960;9.108;2024-02-28T13:56:56;17.30;;;9.23;;
3085;SDS011;52812;48.960;9.108;2024-02-28T13:59:21;16.30;;;9.10;;
3085;SDS011;52812;48.960;9.108;2024-02-28T14:01:47;17.87;;;9.80;;
3085;SDS011;52812;48.960;9.108;2024-02-28T14:04:13;19.60;;;10.53;;
3085;SDS011;52812;48.960;9.108;2024-02-28T14:06:38;18.73;;;10.00;;
3085;SDS011;52812;48.960;9.108;2024-02-28T14:09:04;19.10;;;10.90;;
3085;SDS011;52812;48.960;9.108;2024-02-28T14:11:29;19.03;;;11.33;;
3085;SDS011;52812;48.960;9.108;2024-02-28T14:13:55;17.67;;;10.07;;
3085;SDS011;52812;48.960;9.108;2024-02-28T14:16:21;21.47;;;11.00;;
3085;SDS011;52812;48.960;9.108;2024-02-28T14:18:46;18.63;;;10.50;;
3085;SDS011;52812;48.960;9.108;2024-02-28T14:21:12;18.60;;;10.40;;
3085;SDS011;52812;48.960;9.108;2024-02-28T14:23:38;16.40;;;10.00;;
3085;SDS011;52812;48.960;9.108;2024-02-28T14:26:04;17.53;;;10.60;;
3085;SDS011;52812;48.960;9.108;2024-02-28T14:28:29;17.93;;;10.30;;
3085;SDS011;52812;48.960;9.108;2024-02-28T14:30:55;20.80;;;10.57;;
3085;SDS011;52812;48.960;9.108;2024-02-28T14:33:21;19.40;;;11.77;;